EW1170 Weather Reports


Display with metric or nautical units.
time (UTC)temp
F
wind
direction
speed
MPH
gust
MPH
rain 1hr
in
rain 24hr
in
rain mn
in
humidity
%
barometer
mb
20191118214625 48 226 3.0 5.0 0.00 0.00 0.00 90 1022.3
20191118213159 48 208 1.0 4.0 0.00 0.00 0.00 90 1022.1
20191118211613 49 211 3.0 4.0 0.00 0.00 0.00 89 1022.1
20191118210133 48 232 1.0 3.0 0.00 0.00 0.00 89 1021.8
20191118204736 49 237 3.0 4.0 0.00 0.00 0.00 87 1021.7
20191118203122 49 269 0.0 3.0 0.00 0.00 0.00 87 1021.6
20191118201601 49 255 4.0 7.0 0.00 0.00 0.00 86 1021.4
20191118200125 49 250 5.0 8.0 0.00 0.00 0.00 87 1021.2
20191118194628 49 255 2.0 9.0 0.00 0.00 0.00 86 1021.0
20191118193116 49 240 8.0 11.0 0.00 0.00 0.00 85 1020.9
20191118191612 49 242 5.0 7.0 0.00 0.00 0.00 84 1020.6
20191118190105 50 239 7.0 10.0 0.00 0.00 0.00 82 1020.4
20191118184558 50 215 6.0 11.0 0.00 0.00 0.00 83 1020.2
20191118183108 50 236 8.0 13.0 0.00 0.00 0.00 83 1019.9
20191118181552 50 240 8.0 13.0 0.00 0.00 0.00 83 1019.7
20191118180041 51 248 10.0 14.0 0.00 0.00 0.00 84 1019.2
20191118174600 51 250 10.0 15.0 0.00 0.00 0.00 84 1019.0
20191118173044 52 248 13.0 18.0 0.00 0.00 0.00 82 1018.8
20191118171538 52 235 12.0 23.0 0.00 0.00 0.00 81 1018.4
20191118170024 51 243 17.0 24.0 0.00 0.00 0.00 89 1018.1
20191118164513 51 236 12.0 16.0 0.00 0.00 0.00 96 1017.7
20191118163008 51 217 11.0 17.0 0.00 0.00 0.00 97 1017.4
20191118161503 52 229 11.0 15.0 0.00 0.00 0.00 96 1017.1
20191118160232 52 182 8.0 15.0 0.00 0.00 0.00 95 1016.9
20191118154634 53 236 13.0 22.0 0.00 0.00 0.00 87 1016.9
20191118153114 56 247 11.0 14.0 0.00 0.00 0.00 75 1016.1
20191118151707 55 191 5.0 15.0 0.00 0.00 0.00 76 1015.6
20191118150234 55 191 8.0 16.0 0.00 0.00 0.00 77 1015.5
20191118144639 55 183 5.0 12.0 0.00 0.00 0.00 76 1015.2
20191118143149 55 148 3.0 12.0 0.00 0.00 0.00 75 1014.9
20191118141720 55 200 4.0 9.0 0.00 0.00 0.00 76 1014.7
20191118140151 54 166 1.0 8.0 0.00 0.00 0.00 77 1014.5
20191118134633 54 143 1.0 7.0 0.00 0.00 0.00 76 1014.5
20191118133050 55 53 3.0 7.0 0.00 0.00 0.00 75 1014.4
20191118131637 54 204 3.0 8.0 0.00 0.00 0.00 75 1014.5
20191118130133 54 125 2.0 8.0 0.00 0.00 0.00 75 1014.5
20191118124727 54 153 2.0 7.0 0.00 0.00 0.00 75 1014.3
20191118123144 54 165 1.0 6.0 0.00 0.00 0.00 75 1014.4
20191118121618 54 141 2.0 9.0 0.00 0.00 0.00 74 1014.3
20191118120102 54 122 3.0 9.0 0.00 0.00 0.00 73 1014.2
20191118114625 54 214 2.0 7.0 0.00 0.00 0.00 72 1014.0
20191118113146 54 65 3.0 9.0 0.00 0.00 0.00 71 1013.9
20191118111629 55 143 3.0 8.0 0.00 0.00 0.00 71 1014.0
20191118110122 55 169 1.0 9.0 0.00 0.00 0.00 70 1013.9
20191118104605 55 127 2.0 7.0 0.00 0.00 0.00 70 1014.1
20191118103110 55 138 1.0 7.0 0.00 0.00 0.00 70 1014.0
20191118101552 55 124 4.0 7.0 0.00 0.00 0.00 70 1014.1
20191118100128 55 168 2.0 7.0 0.00 0.00 0.00 70 1014.2
20191118094558 55 139 3.0 9.0 0.00 0.00 0.00 70 1014.2
20191118093052 55 172 5.0 9.0 0.00 0.00 0.00 70 1014.2
20191118091610 54 41 3.0 7.0 0.00 0.00 0.00 71 1014.3
20191118090105 55 233 4.0 8.0 0.00 0.00 0.00 70 1014.3
20191118084549 55 134 4.0 7.0 0.00 0.00 0.00 70 1014.4
20191118083139 56 266 2.0 11.0 0.00 0.00 0.00 69 1014.5
20191118081608 55 181 4.0 10.0 0.00 0.00 0.00 70 1014.4
20191118080115 55 219 1.0 6.0 0.00 0.00 0.00 70 1014.4
20191118074544 55 180 4.0 9.0 0.00 0.00 0.00 69 1014.4
20191118073040 56 15 4.0 10.0 0.00 0.00 0.00 69 1014.3
20191118071537 55 1 4.0 10.0 0.00 0.00 0.00 70 1014.2
20191118070101 0 0.0 0.0 0.00 0.00 0.00 1014.3
20191118064609 0 0.0 0.0 0.00 0.00 0.00 1014.2
20191118063046 0 0.0 0.0 0.00 0.00 0.00 1014.0
20191118061531 0 0.0 0.0 0.00 0.00 0.00 1013.8
20191118060026 0 0.0 0.0 0.00 0.00 0.00 1013.7
20191118054547 0 0.0 0.0 0.00 0.00 0.00 1013.7
20191118053022 0 0.0 0.0 0.00 0.00 0.00 1013.6
20191118051514 0 0.0 0.0 0.00 0.00 0.00 1013.6
20191118050144 0 0.0 0.0 0.00 0.00 0.00 1013.6
20191118044648 0 0.0 0.0 0.00 0.00 0.00 1014.0
20191118043059 0 0.0 0.0 0.00 0.00 0.00 1014.0
20191118041634 0 0.0 0.0 0.00 0.00 0.00 1013.9
20191118040052 0 0.0 0.0 0.00 0.00 0.00 1013.9
20191118034631 0 0.0 0.0 0.00 0.00 0.00 1013.9
20191118033112 0 0.0 0.0 0.00 0.00 0.00 1013.9
20191118031612 0 0.0 0.0 0.00 0.00 0.00 1013.9
20191118030110 0 0.0 0.0 0.00 0.00 0.00 1013.9
20191118024544 0 0.0 0.0 0.00 0.00 0.00 1013.9
20191118023052 0 0.0 0.0 0.00 0.00 0.00 1013.9
20191118021525 0 0.0 0.0 0.00 0.00 0.00 1014.1
20191118020017 0 0.0 0.0 0.00 0.00 0.00 1014.4
20191118014508 0 0.0 0.0 0.00 0.00 0.00 1014.3
20191118013003 0 0.0 0.0 0.00 0.00 0.00 1014.5
20191118011623 0 0.0 0.0 0.00 0.00 0.00 1014.8
20191118010131 0 0.0 0.0 0.00 0.00 0.00 1015.0
20191118004629 54 114 2.0 6.0 0.00 0.00 0.00 69 1015.0
20191118003138 55 150 2.0 7.0 0.00 0.00 0.00 66 1015.0
20191118001709 55 115 3.0 10.0 0.00 0.00 0.00 65 1014.8
20191118000242 56 129 6.0 10.0 0.00 0.00 0.00 63 1015.0
20191117234556 56 100 5.0 14.0 0.00 0.00 0.00 63 1015.0
20191117233157 56 189 7.0 16.0 0.00 0.00 0.00 65 1015.4
20191117231713 54 245 6.0 14.0 0.00 0.00 0.00 68 1015.5
20191117230117 53 141 5.0 12.0 0.00 0.00 0.00 72 1015.6
20191117224546 53 111 3.0 8.0 0.00 0.00 0.00 74 1015.8
20191117223051 53 112 4.0 9.0 0.00 0.00 0.00 74 1016.1
20191117221635 53 118 2.0 8.0 0.00 0.00 0.00 73 1016.2
20191117220058 53 163 4.0 8.0 0.00 0.00 0.00 73 1016.3